Data for 12/07/2017

Time Sea-Level Adjusted Pressure Absolute Pressure Temperature Relative Humidity Dew Point   
(mb) (inHg) (mb) (inHg) (C) (F) (%) (C) (F)
00:05 1033 30.5 862 25.45 -4.4 24 76 -8 17.5
00:10 1033 30.5 862 25.45 -4.5 23.9 76 -8 17.5
00:15 1033 30.5 863 25.48 -4.6 23.6 76 -8.2 17.2
00:20 1033 30.5 863 25.48 -4.8 23.4 78 -8.1 17.4
00:25 1033 30.5 863 25.48 -4.9 23.2 78 -8.2 17.2
00:30 1033 30.5 862 25.45 -4.7 23.5 76 -8.4 17
00:35 1033 30.5 863 25.48 -4.5 23.9 75 -8.3 17.1
00:40 1033 30.5 863 25.48 -4.5 23.9 77 -8 17.5
00:45 1033 30.5 862 25.45 -4.7 23.5 79 -7.9 17.9
00:50 1033 30.5 862 25.45 -4.7 23.5 76 -8.3 17.1
00:55 1033 30.5 862 25.45 -4.4 24.2 76 -8 17.5
01:00 1033 30.5 862 25.45 -4.3 24.2 75 -8.2 17.3
01:05 1033 30.5 862 25.45 -4.3 24.2 75 -8.2 17.3
01:10 1033 30.5 862 25.45 -4.3 24.3 75 -8.1 17.4
01:15 1033 30.5 862 25.45 -4.3 24.3 75 -8.1 17.5
01:20 1033 30.5 862 25.45 -4.3 24.2 75 -8.1 17.3
01:25 1033 30.5 863 25.48 -4.3 24.3 75 -8.1 17.5
01:30 1033 30.5 863 25.48 -4.2 24.4 76 -7.9 17.7
01:35 1033 30.5 863 25.48 -4.2 24.5 76 -7.8 17.9
01:40 1033 30.5 863 25.48 -4.1 24.6 77 -7.6 18.3
01:45 1033 30.5 863 25.48 -4.2 24.5 76 -7.7 18.1
01:50 1033 30.5 863 25.48 -4.1 24.7 75 -7.9 17.7
01:55 1033 30.5 863 25.48 -3.9 25 74 -7.8 17.9
02:00 1033 30.5 863 25.48 -3.8 25.2 75 -7.6 18.2
02:05 1034 30.53 863 25.48 -3.9 24.9 76 -7.6 18.4
02:10 1033 30.5 863 25.48 -4.1 24.6 77 -7.6 18.4
02:15 1033 30.5 863 25.48 -4 24.8 77 -7.5 18.5
02:20 1033 30.5 863 25.48 -4 24.8 77 -7.4 18.7
02:25 1033 30.5 863 25.48 -4.1 24.6 78 -7.4 18.7
02:30 1033 30.5 863 25.48 -4.2 24.4 79 -7.4 18.6
02:35 1033 30.5 863 25.48 -4.4 24.1 80 -7.4 18.8
02:40 1033 30.5 863 25.48 -4.6 23.8 82 -7.3 18.9
02:45 1033 30.5 863 25.48 -4.8 23.4 83 -7.3 18.8
02:50 1033 30.5 863 25.48 -5 23.1 83 -7.4 18.7
02:55 1033 30.5 863 25.48 -5 22.9 84 -7.4 18.7
03:00 1034 30.53 863 25.48 -5 23 83 -7.4 18.7
03:05 1034 30.53 863 25.48 -4.9 23.2 83 -7.4 18.7
03:10 1034 30.53 863 25.48 -4.8 23.3 83 -7.4 18.7
03:15 1034 30.53 863 25.48 -4.9 23.1 83 -7.4 18.7
03:20 1033 30.5 863 25.48 -5 23.1 83 -7.4 18.7
03:25 1033 30.5 863 25.48 -4.9 23.2 83 -7.4 18.7
03:30 1033 30.5 863 25.48 -5 23.1 83 -7.4 18.7
03:35 1033 30.5 863 25.48 -5 22.9 84 -7.4 18.7
03:40 1033 30.5 863 25.48 -5.1 22.8 84 -7.4 18.6
03:45 1033 30.5 863 25.48 -5.2 22.6 84 -7.5 18.5
03:50 1033 30.5 863 25.48 -5.2 22.7 84 -7.4 18.6
03:55 1033 30.5 863 25.48 -5.2 22.7 84 -7.5 18.6
04:00 1033 30.5 863 25.48 -5.2 22.6 84 -7.5 18.5
04:05 1033 30.5 863 25.48 -5.3 22.5 84 -7.6 18.3
04:10 1033 30.5 863 25.48 -5.3 22.4 83 -7.7 18.1
04:15 1034 30.53 863 25.48 -5.6 21.9 84 -7.9 17.7
04:20 1034 30.53 863 25.48 -5.9 21.4 85 -8 17.6
04:25 1033 30.5 863 25.48 -6.1 21 86 -8 17.6
04:30 1033 30.5 863 25.48 -6.1 21.1 87 -7.9 17.8
04:35 1033 30.5 863 25.48 -6 21.3 87 -7.7 18.1
04:40 1033 30.5 863 25.48 -5.8 21.6 85 -7.9 17.7
04:45 1033 30.5 863 25.48 -5.5 22 83 -8 17.6
04:50 1034 30.53 863 25.48 -5.7 21.8 83 -8.1 17.5
04:55 1033 30.5 863 25.48 -5.6 21.9 73 -9.7 14.5
05:00 1033 30.5 863 25.48 -5.2 22.7 71 -9.6 14.7
05:05 1033 30.5 863 25.48 -5 23.1 72 -9.2 15.5
05:10 1034 30.53 863 25.48 -5.2 22.7 73 -9.2 15.4
05:15 1034 30.53 863 25.48 -5.9 21.3 78 -9.2 15.5
05:20 1034 30.53 863 25.48 -6.1 21.1 76 -9.7 14.5
05:25 1034 30.53 863 25.48 -5.6 21.9 70 -10.2 13.6
05:30 1034 30.53 863 25.48 -4.9 23.1 65 -10.6 12.9
05:35 1034 30.53 863 25.48 -4.7 23.5 68 -9.7 14.6
05:40 1034 30.53 863 25.48 -4.8 23.4 70 -9.4 15
05:45 1034 30.53 863 25.48 -5.1 22.8 73 -9.2 15.5
05:50 1034 30.53 863 25.48 -5 23 75 -8.7 16.3
05:55 1034 30.53 863 25.48 -4.9 23.2 74 -8.9 16
06:00 1034 30.53 863 25.48 -5.3 22.5 74 -9.2 15.5
06:05 1034 30.53 863 25.48 -5.7 21.8 76 -9.3 15.2
06:10 1034 30.53 863 25.48 -5.4 22.3 76 -8.9 15.9
06:15 1034 30.53 863 25.48 -5.4 22.4 77 -8.7 16.3
06:20 1034 30.53 863 25.48 -5.4 22.2 79 -8.6 16.6
06:25 1034 30.53 863 25.48 -5.6 22 79 -8.6 16.4
06:30 1034 30.53 863 25.48 -5.1 22.8 75 -8.8 16.1
06:35 1034 30.53 863 25.48 -4.8 23.4 75 -8.5 16.6
06:40 1034 30.53 863 25.48 -5 22.9 77 -8.4 16.8
06:45 1034 30.53 863 25.48 -5.2 22.7 77 -8.6 16.6
06:50 1034 30.53 863 25.48 -5.1 22.8 78 -8.5 16.8
06:55 1034 30.53 863 25.48 -4.7 23.5 75 -8.4 16.8
07:00 1034 30.53 863 25.48 -4.2 24.4 74 -8.2 17.2
07:05 1034 30.53 863 25.48 -4.3 24.2 74 -8.2 17.2
07:10 1034 30.53 863 25.48 -4.9 23.2 77 -8.4 17
07:15 1034 30.53 863 25.48 -5 23 78 -8.4 16.9
07:20 1034 30.53 863 25.48 -4.9 23.1 77 -8.3 17.1
07:25 1034 30.53 863 25.48 -4.8 23.4 77 -8.3 17.1
07:30 1034 30.53 863 25.48 -4.7 23.6 76 -8.3 17.1
07:35 1034 30.53 863 25.48 -4.6 23.7 76 -8.3 17.1
07:40 1034 30.53 863 25.48 -4.7 23.6 76 -8.3 17.1
07:45 1034 30.53 863 25.48 -4.7 23.5 77 -8.2 17.2
07:50 1034 30.53 863 25.48 -4.7 23.6 75 -8.4 16.9
07:55 1034 30.53 863 25.48 -4.4 24.1 75 -8.3 17.1
08:00 1034 30.53 863 25.48 -4.3 24.2 74 -8.3 17.1
08:05 1034 30.53 863 25.48 -4.2 24.4 74 -8.2 17.2
08:10 1034 30.53 863 25.48 -4.1 24.7 73 -8.2 17.3
08:15 1034 30.53 863 25.48 -3.9 24.9 71 -8.4 16.8
08:20 1034 30.53 863 25.48 -3.9 25 72 -8.2 17.3
08:25 1034 30.53 863 25.48 -4.2 24.4 73 -8.5 16.8
08:30 1034 30.53 863 25.48 -4.8 23.4 75 -8.5 16.7
08:35 1034 30.53 863 25.48 -4.7 23.6 75 -8.5 16.8
08:40 1034 30.53 863 25.48 -4.5 23.9 74 -8.4 16.9
08:45 1034 30.53 863 25.48 -4.3 24.2 74 -8.3 17.1
08:50 1034 30.53 863 25.48 -4.3 24.2 74 -8.2 17.2
08:55 1034 30.53 863 25.48 -4.4 24.2 74 -8.2 17.2
09:00 1034 30.53 864 25.51 -4.1 24.6 73 -8.2 17.2
09:05 1034 30.53 863 25.48 -3.9 25 72 -8.2 17.2
09:10 1034 30.53 863 25.48 -3.9 25 73 -8.1 17.4
09:15 1034 30.53 863 25.48 -3.9 25 73 -8.1 17.5
09:20 1034 30.53 864 25.51 -4.1 24.6 74 -8.1 17.3
09:25 1034 30.53 863 25.48 -4.5 24 75 -8.3 17.1
09:30 1034 30.53 863 25.48 -4.4 24 74 -8.4 16.8
09:35 1034 30.53 863 25.48 -4.4 24 74 -8.4 16.8
09:40 1034 30.53 863 25.48 -4.4 24 73 -8.5 16.6
09:45 1034 30.53 863 25.48 -4.2 24.4 73 -8.4 16.9
09:50 1034 30.53 863 25.48 -4 24.8 71 -8.4 16.8
09:55 1034 30.53 863 25.48 -3.9 24.9 72 -8.3 17
10:00 1034 30.53 863 25.48 -3.6 25.4 71 -8.2 17.2
10:05 1034 30.53 863 25.48 -3.5 25.8 70 -8.1 17.4
10:10 1034 30.53 863 25.48 -3.2 26.2 67 -8.6 16.6
10:15 1034 30.53 863 25.48 -2.7 27.1 64 -8.6 16.5
10:20 1034 30.53 863 25.48 -2 28.4 61 -8.7 16.4
10:25 1034 30.53 863 25.48 -2.3 27.8 63 -8.5 16.6
10:30 1034 30.53 863 25.48 -2.4 27.6 62 -8.8 16.2
10:35 1034 30.53 863 25.48 -2.3 27.9 61 -8.7 16.3
10:40 1034 30.53 863 25.48 -2.5 27.6 62 -8.8 16.1
10:45 1034 30.53 863 25.48 -3 26.7 63 -8.9 15.9
10:50 1034 30.53 863 25.48 -3.2 26.3 63 -9.1 15.6
10:55 1034 30.53 863 25.48 -3.4 26 65 -9.1 15.7
11:00 1034 30.53 863 25.48 -3.4 25.9 64 -9.2 15.4
11:05 1034 30.53 863 25.48 -3.1 26.4 63 -9.2 15.5
11:10 1034 30.53 863 25.48 -2.9 26.8 64 -8.8 16.1
11:15 1034 30.53 863 25.48 -3.1 26.4 64 -8.9 15.9
11:20 1034 30.53 863 25.48 -3.3 26.1 62 -9.4 15
11:25 1034 30.53 863 25.48 -3.5 25.7 62 -9.7 14.5
11:30 1034 30.53 863 25.48 -3.5 25.7 63 -9.7 14.6
11:35 1033 30.5 863 25.48 -3.5 25.6 62 -9.7 14.5
11:40 1033 30.5 863 25.48 -3.5 25.6 61 -9.9 14.2
11:45 1033 30.5 862 25.45 -3.6 25.5 60 -10.3 13.5
11:50 1033 30.5 862 25.45 -3.7 25.3 62 -10.1 13.9
11:55 1033 30.5 862 25.45 -3.3 26 60 -10 14.1
12:00 1033 30.5 862 25.45 -2.7 27.1 58 -10 14.1
12:05 1033 30.5 862 25.45 -2.7 27.1 59 -9.6 14.8
12:10 1033 30.5 862 25.45 -2.2 28 58 -9.4 15.1
12:15 1033 30.5 862 25.45 -1.7 29 57 -9.1 15.7
12:20 1033 30.5 862 25.45 -1.6 29.2 56 -9.3 15.3
12:25 1033 30.5 862 25.45 -1.5 29.3 56 -9.2 15.5
12:30 1033 30.5 862 25.45 -1.3 29.6 55 -9.2 15.5
12:35 1033 30.5 862 25.45 -1.4 29.5 56 -9.1 15.6
12:40 1033 30.5 862 25.45 -1.4 29.5 56 -9.2 15.5
12:45 1033 30.5 862 25.45 -1.4 29.5 56 -9.1 15.7
12:50 1033 30.5 862 25.45 -2.1 28.2 58 -9.3 15.3
12:55 1033 30.5 862 25.45 -2.3 27.9 56 -9.8 14.3
13:00 1033 30.5 862 25.45 -1.8 28.8 54 -9.9 14.3
13:05 1033 30.5 862 25.45 -1.3 29.6 54 -9.4 15.1
13:10 1033 30.5 862 25.45 -0.8 30.6 51 -9.6 14.6
13:15 1033 30.5 862 25.45 -0.7 30.8 52 -9.4 15.1
13:20 1033 30.5 862 25.45 -1.2 29.8 53 -9.7 14.6
13:25 1033 30.5 862 25.45 -1.3 29.6 54 -9.5 14.9
13:30 1033 30.5 862 25.45 -1.7 29 55 -9.6 14.8
13:35 1033 30.5 862 25.45 -2 28.4 55 -9.8 14.4
13:40 1033 30.5 862 25.45 -2 28.4 53 -10.4 13.3
13:45 1033 30.5 862 25.45 -1.5 29.3 53 -10 14.1
13:50 1033 30.5 862 25.45 -1 30.2 50 -10.1 13.9
13:55 1033 30.5 862 25.45 -0.5 31 50 -9.7 14.5
14:00 1033 30.5 862 25.45 -0 31.9 48 -9.7 14.5
14:05 1033 30.5 862 25.45 -0.3 31.5 53 -8.8 16.1
14:10 1033 30.5 862 25.45 -0.6 31 53 -9 15.9
14:15 1033 30.5 862 25.45 -0.7 30.7 56 -8.3 17
14:20 1033 30.5 862 25.45 -0.7 30.8 55 -8.6 16.6
14:25 1033 30.5 862 25.45 -0.4 31.3 52 -9.2 15.5
14:30 1033 30.5 862 25.45 -0.8 30.6 53 -9.3 15.3
14:35 1033 30.5 862 25.45 -1.1 30 52 -9.6 14.6
14:40 1033 30.5 862 25.45 -1.3 29.6 56 -9.1 15.6
14:45 1033 30.5 862 25.45 -1.4 29.5 52 -10 14.1
14:50 1033 30.5 862 25.45 -1.7 29 54 -9.9 14.2
14:55 1033 30.5 863 25.48 -1.8 28.7 56 -9.4 15
15:00 1033 30.5 863 25.48 -1.6 29.2 54 -9.7 14.6
15:05 1033 30.5 862 25.45 -1.5 29.3 54 -9.6 14.6
15:10 1033 30.5 862 25.45 -1.6 29.1 55 -9.5 14.8
15:15 1033 30.5 863 25.48 -1.5 29.4 53 -9.8 14.4
15:20 1033 30.5 863 25.48 -1.8 28.8 55 -9.7 14.5
15:25 1033 30.5 863 25.48 -2.2 28.1 56 -9.9 14.3
15:30 1033 30.5 863 25.48 -2.7 27.2 56 -10.2 13.7
15:35 1033 30.5 863 25.48 -2.9 26.8 57 -10.4 13.3
15:40 1033 30.5 863 25.48 -2.9 26.8 57 -10.2 13.6
15:45 1033 30.5 862 25.45 -2.8 26.9 58 -10 14.1
15:50 1033 30.5 863 25.48 -3 26.6 59 -9.9 14.1
15:55 1033 30.5 863 25.48 -3.2 26.2 60 -10 14
16:00 1033 30.5 863 25.48 -3.2 26.2 60 -10 14
16:05 1033 30.5 863 25.48 -3.1 26.3 60 -9.8 14.4
16:10 1033 30.5 863 25.48 -3.2 26.2 62 -9.6 14.8
16:15 1033 30.5 863 25.48 -3.3 26 64 -9.3 15.3
16:20 1033 30.5 863 25.48 -3.4 25.8 66 -8.9 15.9
16:25 1033 30.5 862 25.45 -3.7 25.4 67 -8.9 16
16:30 1033 30.5 862 25.45 -3.7 25.3 67 -9 15.8
16:35 1033 30.5 863 25.48 -3.8 25.2 69 -8.7 16.3
16:40 1033 30.5 863 25.48 -4.1 24.7 69 -9 15.9
16:45 1033 30.5 863 25.48 -4.4 24.2 70 -9.1 15.7
16:50 1033 30.5 863 25.48 -4.4 24.1 68 -9.4 15.1
16:55 1033 30.5 863 25.48 -4.1 24.6 67 -9.4 15.1
17:00 1033 30.5 863 25.48 -4 24.8 67 -9.2 15.4
17:05 1034 30.53 863 25.48 -4.2 24.5 68 -9.1 15.6
17:10 1033 30.5 863 25.48 -4.3 24.2 70 -9 15.9
17:15 1033 30.5 863 25.48 -4.3 24.2 71 -8.9 16
17:20 1033 30.5 863 25.48 -4.6 23.8 71 -9 15.8
17:25 1033 30.5 863 25.48 -4.5 23.9 70 -9.2 15.4
17:30 1033 30.5 863 25.48 -4.4 24 70 -9.2 15.5
17:35 1033 30.5 863 25.48 -4.4 24.1 70 -9.1 15.6
17:40 1034 30.53 863 25.48 -4.2 24.5 70 -8.8 16.1
17:45 1034 30.53 863 25.48 -4.1 24.6 69 -9 15.7
17:50 1034 30.53 863 25.48 -3.9 25 67 -9.3 15.3
17:55 1033 30.5 863 25.48 -3.8 25.1 67 -9.1 15.6
18:00 1033 30.5 863 25.48 -3.8 25.1 68 -8.9 16
18:05 1034 30.53 863 25.48 -4.1 24.7 69 -9 15.8
18:10 1033 30.5 863 25.48 -4 24.8 67 -9.2 15.4
18:15 1033 30.5 863 25.48 -3.8 25.2 62 -10.1 13.9
18:20 1033 30.5 863 25.48 -3.6 25.5 67 -8.9 15.9
18:25 1033 30.5 863 25.48 -4.4 24.1 72 -8.8 16.2
18:30 1033 30.5 863 25.48 -5.2 22.6 74 -9.2 15.5
18:35 1033 30.5 863 25.48 -5.5 22 76 -9.1 15.7
18:40 1033 30.5 863 25.48 -5.1 22.8 72 -9.4 15.1
18:45 1033 30.5 863 25.48 -4.8 23.4 70 -9.5 15
18:50 1033 30.5 863 25.48 -4.7 23.5 71 -9.3 15.3
18:55 1034 30.53 863 25.48 -4.8 23.4 70 -9.5 14.8
19:00 1034 30.53 863 25.48 -4.9 23.1 71 -9.4 15
19:05 1034 30.53 863 25.48 -4.8 23.4 67 -9.9 14.2
19:10 1034 30.53 863 25.48 -4.2 24.4 65 -9.8 14.4
19:15 1034 30.53 863 25.48 -4 24.8 65 -9.7 14.6
19:20 1034 30.53 863 25.48 -4.1 24.6 65 -9.8 14.3
19:25 1034 30.53 863 25.48 -4.2 24.5 66 -9.5 14.9
19:30 1034 30.53 863 25.48 -4.1 24.5 66 -9.5 14.9
19:35 1034 30.53 863 25.48 -4 24.8 63 -10 14
19:40 1034 30.53 863 25.48 -3.8 25.2 64 -9.7 14.5
19:45 1034 30.53 863 25.48 -4.1 24.7 66 -9.4 15
19:50 1034 30.53 863 25.48 -4.4 24.1 63 -10.3 13.4
19:55 1034 30.53 863 25.48 -4.2 24.4 61 -10.6 12.9
20:00 1034 30.53 863 25.48 -3.9 24.9 61 -10.5 13.2
20:05 1034 30.53 863 25.48 -3.9 25 65 -9.6 14.7
20:10 1034 30.53 863 25.48 -4.1 24.6 64 -9.9 14.1
20:15 1034 30.53 863 25.48 -4.4 24.1 68 -9.5 15
20:20 1034 30.53 863 25.48 -4.2 24.4 62 -10.4 13.2
20:25 1034 30.53 863 25.48 -3.9 24.9 62 -10.2 13.6
20:30 1034 30.53 863 25.48 -3.9 24.9 65 -9.6 14.7
20:35 1034 30.53 863 25.48 -3.9 25 62 -10.1 13.9
20:40 1034 30.53 863 25.48 -3.9 25 63 -9.9 14.2
20:45 1034 30.53 863 25.48 -4 24.7 65 -9.7 14.6
20:50 1034 30.53 863 25.48 -4.5 24 72 -8.9 16
20:55 1034 30.53 863 25.48 -4.7 23.6 77 -8.1 17.5
21:00 1034 30.53 863 25.48 -4.4 24.2 72 -8.7 16.4
21:05 1034 30.53 863 25.48 -4.1 24.6 71 -8.5 16.6
21:10 1034 30.53 863 25.48 -4.1 24.7 72 -8.4 16.8
21:15 1034 30.53 863 25.48 -4.1 24.6 71 -8.5 16.6
21:20 1034 30.53 863 25.48 -4 24.8 70 -8.7 16.3
21:25 1034 30.53 863 25.48 -3.7 25.3 70 -8.4 16.8
21:30 1034 30.53 863 25.48 -3.4 25.8 67 -8.6 16.4
21:35 1034 30.53 863 25.48 -3.3 26.1 67 -8.6 16.5
21:40 1034 30.53 863 25.48 -3.1 26.4 65 -8.8 16.2
21:45 1034 30.53 863 25.48 -3.4 25.8 63 -9.4 15
21:50 1034 30.53 863 25.48 -3.9 24.9 65 -9.6 14.6
21:55 1034 30.53 863 25.48 -4.3 24.3 65 -9.8 14.3
22:00 1034 30.53 863 25.48 -4.5 23.9 65 -10.1 13.8
22:05 1034 30.53 863 25.48 -4.5 23.9 65 -10.2 13.7
22:10 1034 30.53 863 25.48 -4.7 23.6 65 -10.2 13.6
22:15 1034 30.53 863 25.48 -4.8 23.4 66 -10.2 13.6
22:20 1034 30.53 863 25.48 -4.9 23.2 67 -10.1 13.9
22:25 1034 30.53 863 25.48 -5.2 22.6 70 -9.9 14.2
22:30 1034 30.53 863 25.48 -5.4 22.3 70 -10 14
22:35 1034 30.53 863 25.48 -5.5 22.2 71 -9.9 14.3
22:40 1034 30.53 863 25.48 -5.5 22.2 71 -9.9 14.1
22:45 1034 30.53 863 25.48 -5.7 21.8 71 -10.1 13.7
22:50 1034 30.53 863 25.48 -6.1 21 74 -10.1 13.8
22:55 1034 30.53 863 25.48 -6.5 20.4 76 -10 13.9
23:00 1034 30.53 863 25.48 -6.5 20.3 78 -9.8 14.3
23:05 1034 30.53 863 25.48 -6.4 20.5 77 -9.7 14.5
23:10 1034 30.53 863 25.48 -6.2 20.8 76 -9.9 14.3
23:15 1034 30.53 863 25.48 -6 21.2 76 -9.7 14.6
23:20 1034 30.53 863 25.48 -5.7 21.7 74 -9.6 14.8
23:25 1033 30.5 863 25.48 -5.7 21.8 74 -9.6 14.7
23:30 1033 30.5 863 25.48 -5.8 21.5 74 -9.7 14.5
23:35 1033 30.5 863 25.48 -5.9 21.3 75 -9.7 14.5
23:40 1033 30.5 863 25.48 -6 21.2 73 -10.1 13.9
23:45 1033 30.5 863 25.48 -6.6 20.2 77 -9.9 14.2
23:50 1033 30.5 863 25.48 -7.1 19.3 81 -9.9 14.2
23:55 1033 30.5 863 25.48 -7.1 19.2 79 -10.1 13.8
24:00 1033 30.5 863 25.48 -7 19.4 79 -10 14